Time;durP1;ratioP1;P1;durP2;ratioP2;P2;SDS_P1;SDS_P2;PMS_P1;PMS_P2;Temp;Humidity;BMP_temperature;BMP_pressure;BME280_temperature;BME280_humidity;BME280_pressure;Samples;Min_cycle;Max_cycle;Signal;HPM_P1;HPM_P2
2023/07/03 00:01:32;;;;;;;10.98;2.30;;;16.60;94.20;;;;;;4994077;28;20038;-54
2023/07/03 00:03:57;;;;;;;6.65;2.33;;;16.60;94.30;;;;;;4993845;28;20093;-57
2023/07/03 00:06:23;;;;;;;7.03;2.22;;;16.60;94.30;;;;;;4994019;28;20022;-56
2023/07/03 00:08:49;;;;;;;4.90;1.80;;;16.60;94.40;;;;;;4994389;28;20074;-57
2023/07/03 00:11:14;;;;;;;10.90;2.47;;;16.50;94.50;;;;;;4993978;28;20034;-56
2023/07/03 00:13:40;;;;;;;14.73;2.70;;;16.50;94.60;;;;;;4993787;28;20045;-56
2023/07/03 00:16:05;;;;;;;8.95;2.08;;;16.40;94.70;;;;;;4993957;28;20471;-56
2023/07/03 00:18:31;;;;;;;7.38;2.35;;;16.50;94.90;;;;;;4993856;28;20038;-55
2023/07/03 00:20:57;;;;;;;9.25;2.42;;;16.40;95.00;;;;;;4993852;28;20076;-55
2023/07/03 00:23:24;;;;;;;11.80;2.25;;;16.30;95.10;;;;;;4993379;28;20026;-59
2023/07/03 00:25:51;;;;;;;9.20;2.28;;;16.30;95.30;;;;;;4993831;28;20039;-59
2023/07/03 00:28:17;;;;;;;8.32;1.90;;;16.30;95.50;;;;;;4994001;28;20041;-54
2023/07/03 00:30:43;;;;;;;10.98;2.00;;;16.30;95.60;;;;;;4993649;28;20483;-58
2023/07/03 00:33:10;;;;;;;7.68;1.90;;;16.10;96.10;;;;;;4975595;28;20534;-59
2023/07/03 00:35:36;;;;;;;8.02;2.22;;;16.10;96.00;;;;;;4993692;28;20040;-55
2023/07/03 00:38:02;;;;;;;4.65;1.60;;;16.00;96.20;;;;;;4976018;28;20033;-53
2023/07/03 00:40:28;;;;;;;8.82;2.15;;;15.90;96.40;;;;;;4993488;28;20022;-59
2023/07/03 00:42:55;;;;;;;7.20;1.90;;;15.90;96.50;;;;;;4993194;28;20117;-58
2023/07/03 00:45:21;;;;;;;7.40;2.00;;;15.90;96.60;;;;;;4976135;28;20038;-59
2023/07/03 00:47:47;;;;;;;6.78;2.08;;;15.90;97.00;;;;;;4974905;28;20491;-56
2023/07/03 00:50:13;;;;;;;9.05;2.30;;;15.80;96.90;;;;;;4975783;28;20030;-59
2023/07/03 00:52:39;;;;;;;9.52;1.98;;;15.80;96.90;;;;;;4975041;28;20096;-56
2023/07/03 00:55:06;;;;;;;7.50;2.30;;;15.70;96.90;;;;;;4993250;28;20033;-59
2023/07/03 00:57:32;;;;;;;7.75;1.80;;;15.70;96.90;;;;;;4993251;28;20053;-59
2023/07/03 00:59:59;;;;;;;11.95;2.05;;;15.70;97.10;;;;;;4993260;28;20566;-54
2023/07/03 01:02:29;;;;;;;6.88;2.38;;;15.70;97.20;;;;;;4992868;28;20034;-58
2023/07/03 01:04:58;;;;;;;8.25;1.60;;;15.70;97.30;;;;;;4975362;28;20030;-59
2023/07/03 01:07:35;;;;;;;7.95;2.55;;;15.60;97.50;;;;;;4993000;28;20085;-58
2023/07/03 01:10:22;;;;;;;10.30;2.05;;;15.60;97.50;;;;;;4992961;28;20039;-57
2023/07/03 01:12:59;;;;;;;7.25;2.03;;;15.60;97.70;;;;;;4974974;28;20034;-58
2023/07/03 01:15:31;;;;;;;7.93;1.75;;;15.60;97.80;;;;;;4992966;28;20468;-59
2023/07/03 01:18:00;;;;;;;7.40;2.10;;;15.60;97.90;;;;;;4975345;28;20081;-57
2023/07/03 01:20:31;;;;;;;8.63;2.05;;;15.50;97.90;;;;;;4975394;28;20121;-59
2023/07/03 01:23:12;;;;;;;7.20;1.80;;;15.50;98.10;;;;;;4975051;28;20042;-57
2023/07/03 01:25:41;;;;;;;10.88;1.90;;;15.50;98.20;;;;;;4993253;28;20458;-59
2023/07/03 01:28:10;;;;;;;10.20;1.75;;;15.50;98.20;;;;;;4992961;28;20114;-59
2023/07/03 01:30:38;;;;;;;7.70;2.20;;;15.40;98.30;;;;;;4993131;28;20062;-59
2023/07/03 01:33:06;;;;;;;8.07;2.20;;;15.40;98.30;;;;;;4974878;28;20057;-59
2023/07/03 01:35:32;;;;;;;9.93;2.28;;;15.40;98.50;;;;;;4975291;28;20034;-58
2023/07/03 01:38:00;;;;;;;10.70;2.22;;;15.30;98.70;;;;;;4992950;28;20361;-59
2023/07/03 01:40:28;;;;;;;4.85;1.63;;;15.30;98.80;;;;;;4992534;28;20050;-55
2023/07/03 01:42:55;;;;;;;8.73;1.88;;;15.30;98.90;;;;;;4991926;28;20061;-59
2023/07/03 01:45:21;;;;;;;6.90;2.10;;;15.30;98.90;;;;;;4992348;28;20113;-58
2023/07/03 01:47:47;;;;;;;9.20;2.65;;;15.20;99.10;;;;;;4974941;28;20166;-58
2023/07/03 01:50:18;;;;;;;6.85;1.48;;;15.30;99.30;;;;;;4974691;28;20030;-56
2023/07/03 01:52:51;;;;;;;8.35;2.10;;;15.20;99.20;;;;;;4992069;28;20064;-56
2023/07/03 01:55:48;;;;;;;8.20;1.90;;;15.20;99.30;;;;;;4974539;28;20125;-58
2023/07/03 01:58:25;;;;;;;7.72;1.50;;;15.20;99.50;;;;;;4992090;28;20030;-58
2023/07/03 02:01:00;;;;;;;7.60;1.67;;;15.20;99.60;;;;;;4974345;28;20035;-55
2023/07/03 02:03:46;;;;;;;8.88;2.15;;;15.20;99.60;;;;;;4974057;28;20511;-54
2023/07/03 02:06:28;;;;;;;8.98;1.98;;;15.20;99.60;;;;;;4991966;28;20365;-57
2023/07/03 02:08:55;;;;;;;7.90;2.45;;;15.10;99.80;;;;;;4974445;28;20475;-58
2023/07/03 02:11:22;;;;;;;6.55;1.65;;;15.10;99.90;;;;;;4974259;28;20125;-56
2023/07/03 02:13:52;;;;;;;8.88;1.80;;;15.10;99.90;;;;;;4974009;28;20495;-58
2023/07/03 02:16:22;;;;;;;12.48;2.00;;;15.10;99.90;;;;;;4974375;28;20033;-57
2023/07/03 02:18:49;;;;;;;11.45;2.00;;;15.20;99.90;;;;;;4991619;28;20066;-59
2023/07/03 02:21:15;;;;;;;8.70;2.28;;;15.20;99.90;;;;;;4974176;28;20057;-59
2023/07/03 02:23:42;;;;;;;9.32;1.80;;;15.10;99.90;;;;;;4973918;28;20065;-54
2023/07/03 02:26:09;;;;;;;6.43;1.60;;;15.10;99.90;;;;;;4974225;28;20026;-59
2023/07/03 02:28:36;;;;;;;9.98;2.50;;;15.10;99.90;;;;;;4974123;28;20042;-57
2023/07/03 02:31:02;;;;;;;14.38;2.40;;;15.10;99.90;;;;;;4991611;28;20038;-57
2023/07/03 02:33:29;;;;;;;7.18;2.20;;;15.00;99.90;;;;;;4990871;28;20403;-55
2023/07/03 02:35:55;;;;;;;9.73;2.45;;;15.10;99.90;;;;;;4991412;28;20122;-52
2023/07/03 02:38:21;;;;;;;8.73;2.38;;;15.20;99.90;;;;;;4991470;28;20027;-57
2023/07/03 02:40:49;;;;;;;12.70;2.10;;;15.10;99.90;;;;;;4991462;28;20113;-59
2023/07/03 02:43:14;;;;;;;9.05;1.92;;;15.00;99.90;;;;;;4973383;28;20117;-57
2023/07/03 02:45:42;;;;;;;13.30;2.60;;;15.00;99.90;;;;;;4974400;28;20376;-55
2023/07/03 02:48:10;;;;;;;9.77;1.95;;;15.00;99.90;;;;;;4973820;28;20066;-58
2023/07/03 02:50:41;;;;;;;6.80;2.40;;;15.00;99.90;;;;;;4973914;28;20042;-57
2023/07/03 02:53:07;;;;;;;10.75;2.15;;;15.00;99.90;;;;;;4973457;28;20042;-58
2023/07/03 02:55:34;;;;;;;8.20;2.35;;;15.00;99.90;;;;;;4973875;28;20058;-57
2023/07/03 02:58:00;;;;;;;6.95;1.90;;;15.00;99.90;;;;;;4973777;28;20050;-56
2023/07/03 03:00:28;;;;;;;11.25;2.47;;;15.00;99.90;;;;;;4973759;28;20495;-57
2023/07/03 03:02:54;;;;;;;8.02;2.25;;;14.90;99.90;;;;;;4973284;28;20034;-58
2023/07/03 03:05:20;;;;;;;9.82;2.55;;;14.90;99.90;;;;;;4991151;28;20030;-56
2023/07/03 03:07:45;;;;;;;9.82;1.95;;;14.90;99.90;;;;;;4973891;28;20379;-59
2023/07/03 03:10:11;;;;;;;13.38;2.83;;;14.90;99.90;;;;;;4991253;28;20026;-55
2023/07/03 03:12:37;;;;;;;12.73;1.92;;;14.90;99.90;;;;;;4994038;28;20038;-56
2023/07/03 03:15:03;;;;;;;8.32;2.33;;;14.90;99.90;;;;;;4977621;28;20045;-57
2023/07/03 03:17:28;;;;;;;10.68;2.00;;;14.90;99.90;;;;;;4977342;28;20091;-57
2023/07/03 03:19:54;;;;;;;8.20;2.35;;;14.90;99.90;;;;;;4977418;28;20026;-59
2023/07/03 03:22:20;;;;;;;7.60;2.03;;;14.90;99.90;;;;;;4977420;28;20072;-58
2023/07/03 03:24:45;;;;;;;9.18;2.30;;;14.90;99.90;;;;;;4994735;28;20031;-59
2023/07/03 03:27:11;;;;;;;9.52;2.08;;;14.90;99.90;;;;;;4977467;28;20038;-54
2023/07/03 03:29:38;;;;;;;9.50;2.20;;;14.90;99.90;;;;;;4977622;28;20031;-57
2023/07/03 03:32:05;;;;;;;7.45;1.50;;;14.80;99.90;;;;;;4976932;28;20030;-57
2023/07/03 03:34:34;;;;;;;12.20;2.63;;;14.80;99.90;;;;;;4977011;28;20043;-55
2023/07/03 03:37:02;;;;;;;8.50;2.72;;;14.80;99.90;;;;;;4994770;28;20471;-56
2023/07/03 03:39:28;;;;;;;12.32;2.05;;;14.80;99.90;;;;;;4977113;28;20030;-58
2023/07/03 03:41:54;;;;;;;8.63;2.08;;;14.80;99.90;;;;;;4977010;28;20522;-55
2023/07/03 03:44:20;;;;;;;8.40;1.63;;;14.80;99.90;;;;;;4976924;28;20034;-55
2023/07/03 03:46:46;;;;;;;11.52;1.90;;;14.80;99.90;;;;;;4977095;28;20052;-56
2023/07/03 03:49:12;;;;;;;8.50;1.90;;;14.80;99.90;;;;;;4977017;28;20054;-56
2023/07/03 03:51:38;;;;;;;11.55;2.65;;;14.80;99.90;;;;;;4976791;28;20487;-58
2023/07/03 03:54:04;;;;;;;11.60;2.20;;;14.80;99.90;;;;;;4976902;28;20057;-58
2023/07/03 03:56:31;;;;;;;9.55;2.75;;;14.70;99.90;;;;;;4977105;28;20030;-57
2023/07/03 03:58:57;;;;;;;15.38;2.28;;;14.80;99.90;;;;;;4977316;28;20081;-58
2023/07/03 04:01:23;;;;;;;11.82;2.30;;;14.80;99.90;;;;;;4977081;28;20395;-54
2023/07/03 04:03:50;;;;;;;9.77;2.05;;;14.80;99.90;;;;;;4976709;28;20037;-52
2023/07/03 04:06:16;;;;;;;10.20;2.05;;;14.80;99.90;;;;;;4977094;28;20402;-59
2023/07/03 04:08:42;;;;;;;10.57;2.25;;;14.80;99.90;;;;;;4994246;28;20034;-54
2023/07/03 04:11:08;;;;;;;10.23;2.33;;;14.80;99.90;;;;;;4994349;28;20038;-56
2023/07/03 04:13:34;;;;;;;15.45;3.08;;;14.80;99.90;;;;;;4993578;28;20030;-58
2023/07/03 04:16:01;;;;;;;8.57;2.00;;;14.90;99.90;;;;;;4994188;28;20027;-57
2023/07/03 04:18:27;;;;;;;12.55;2.58;;;14.90;99.90;;;;;;4994033;28;20030;-58
2023/07/03 04:20:53;;;;;;;16.50;2.50;;;14.90;99.90;;;;;;4994116;28;20173;-58
2023/07/03 04:23:19;;;;;;;13.30;2.95;;;15.00;99.90;;;;;;4993497;28;20121;-58
2023/07/03 04:25:45;;;;;;;11.43;1.90;;;15.00;99.90;;;;;;4994049;28;20026;-59
2023/07/03 04:28:11;;;;;;;7.75;2.50;;;15.00;99.90;;;;;;4993790;28;20038;-57
2023/07/03 04:30:37;;;;;;;13.77;3.22;;;15.00;99.90;;;;;;4976133;28;20490;-59
2023/07/03 04:33:03;;;;;;;10.90;2.70;;;15.00;99.90;;;;;;4992950;28;20066;-59
2023/07/03 04:35:29;;;;;;;6.63;2.22;;;15.00;99.90;;;;;;4993622;28;20039;-57
2023/07/03 04:37:54;;;;;;;11.80;2.38;;;15.10;99.90;;;;;;4993589;28;20034;-58
2023/07/03 04:40:20;;;;;;;10.73;2.47;;;15.10;99.90;;;;;;4993578;28;20034;-59
2023/07/03 04:42:46;;;;;;;17.40;2.70;;;15.10;99.90;;;;;;4992959;28;20037;-59
2023/07/03 04:45:13;;;;;;;9.80;2.13;;;15.20;99.90;;;;;;4993497;28;20113;-59
2023/07/03 04:47:39;;;;;;;16.30;2.55;;;15.20;99.90;;;;;;4993320;28;20568;-56
2023/07/03 04:50:07;;;;;;;7.80;2.03;;;15.20;99.90;;;;;;4993427;28;20118;-58
2023/07/03 04:52:36;;;;;;;9.15;2.40;;;15.20;99.90;;;;;;4992925;28;20038;-58
2023/07/03 04:55:02;;;;;;;11.68;2.60;;;15.20;99.90;;;;;;4993164;28;20066;-57
2023/07/03 04:57:28;;;;;;;12.15;2.65;;;15.30;99.90;;;;;;4993460;28;20215;-58
2023/07/03 04:59:57;;;;;;;12.50;2.28;;;15.20;99.90;;;;;;4993306;28;20027;-56
2023/07/03 05:02:24;;;;;;;9.95;2.28;;;15.30;99.90;;;;;;4992777;28;20486;-58
2023/07/03 05:04:49;;;;;;;15.73;2.55;;;15.30;99.90;;;;;;4992804;28;20108;-59
2023/07/03 05:07:17;;;;;;;15.98;4.38;;;15.20;99.90;;;;;;4993047;28;20030;-58
2023/07/03 05:09:43;;;;;;;11.07;3.80;;;15.20;99.90;;;;;;4993214;28;20030;-56
2023/07/03 05:12:09;;;;;;;18.13;5.43;;;15.30;99.90;;;;;;4975215;28;20529;-59
2023/07/03 05:14:35;;;;;;;13.90;4.18;;;15.30;99.90;;;;;;4992721;28;20034;-59
2023/07/03 05:17:03;;;;;;;12.80;2.53;;;15.40;99.90;;;;;;5009302;22;20562;-51
2023/07/03 05:19:29;;;;;;;17.80;2.28;;;15.40;99.90;;;;;;5010652;28;20038;-52
2023/07/03 05:21:55;;;;;;;14.75;2.72;;;15.30;99.90;;;;;;4994522;28;20033;-53
2023/07/03 05:24:20;;;;;;;14.02;3.17;;;15.30;99.90;;;;;;5012023;28;20025;-48
2023/07/03 05:26:46;;;;;;;7.45;2.17;;;15.40;99.90;;;;;;5012270;28;20083;-52
2023/07/03 05:29:12;;;;;;;15.27;3.63;;;15.40;99.90;;;;;;5012265;28;20057;-53
2023/07/03 05:31:37;;;;;;;12.48;2.30;;;15.50;99.90;;;;;;4994235;28;20084;-50
2023/07/03 05:34:03;;;;;;;12.30;2.55;;;15.50;99.90;;;;;;5011138;28;20474;-49
2023/07/03 05:36:30;;;;;;;13.20;2.88;;;15.50;99.90;;;;;;5012069;28;20022;-51
2023/07/03 05:38:55;;;;;;;9.63;2.53;;;15.50;99.90;;;;;;5012030;28;20040;-50
2023/07/03 05:41:22;;;;;;;14.43;2.10;;;15.50;99.90;;;;;;5011846;28;20022;-53
2023/07/03 05:43:48;;;;;;;13.20;2.30;;;15.50;99.90;;;;;;5011615;28;20042;-52
2023/07/03 05:46:14;;;;;;;10.68;2.20;;;15.40;99.90;;;;;;5011899;28;20034;-53
2023/07/03 05:48:39;;;;;;;10.93;2.55;;;15.50;99.90;;;;;;5011764;28;20030;-49
2023/07/03 05:51:05;;;;;;;10.73;2.88;;;15.50;99.90;;;;;;5011857;28;20041;-53
2023/07/03 05:53:31;;;;;;;11.27;2.60;;;15.50;99.90;;;;;;5011263;28;20030;-50
2023/07/03 05:55:57;;;;;;;10.55;2.33;;;15.50;99.90;;;;;;5011716;28;20041;-53
2023/07/03 05:58:25;;;;;;;17.38;2.72;;;15.50;99.90;;;;;;4994130;28;20034;-53
2023/07/03 06:00:51;;;;;;;7.15;2.30;;;15.50;99.90;;;;;;5011509;28;20033;-51
2023/07/03 06:03:18;;;;;;;10.25;2.03;;;15.60;99.90;;;;;;5011050;28;20100;-54
2023/07/03 06:05:44;;;;;;;10.57;2.50;;;15.70;99.90;;;;;;5011551;28;20057;-55
2023/07/03 06:08:10;;;;;;;12.25;2.53;;;15.80;99.90;;;;;;5011664;28;20038;-54
2023/07/03 06:10:37;;;;;;;12.38;2.17;;;15.80;99.90;;;;;;5011603;28;20096;-53
2023/07/03 06:13:04;;;;;;;11.02;2.50;;;16.00;99.90;;;;;;5011045;28;20510;-54
2023/07/03 06:15:30;;;;;;;8.05;2.05;;;16.00;99.90;;;;;;5011357;28;20037;-55
2023/07/03 06:17:56;;;;;;;10.07;2.17;;;16.10;99.90;;;;;;5011273;28;20041;-51
2023/07/03 06:20:22;;;;;;;9.55;2.45;;;16.20;99.90;;;;;;5011363;28;20398;-51
2023/07/03 06:22:48;;;;;;;11.70;2.70;;;16.30;99.90;;;;;;5010909;28;20026;-52
2023/07/03 06:25:13;;;;;;;9.90;2.55;;;16.40;99.90;;;;;;5011374;28;20486;-49
2023/07/03 06:27:39;;;;;;;11.00;2.95;;;16.50;99.90;;;;;;5011348;28;20132;-51
2023/07/03 06:30:06;;;;;;;9.32;2.10;;;16.50;99.90;;;;;;5011323;28;20034;-56
2023/07/03 06:32:32;;;;;;;68.50;26.73;;;16.50;99.90;;;;;;5010883;28;20353;-51
2023/07/03 06:34:57;;;;;;;16.20;7.72;;;16.60;99.90;;;;;;4993389;28;20034;-52
2023/07/03 06:37:23;;;;;;;19.05;7.47;;;16.70;99.90;;;;;;5011323;28;20466;-54
2023/07/03 06:39:48;;;;;;;22.33;7.18;;;16.80;99.90;;;;;;4993599;28;20387;-53
2023/07/03 06:42:14;;;;;;;12.65;3.05;;;16.90;99.90;;;;;;5010931;28;20112;-53
2023/07/03 06:44:43;;;;;;;10.45;2.15;;;17.00;99.90;;;;;;4993460;28;20056;-53
2023/07/03 06:47:09;;;;;;;13.00;2.35;;;17.20;99.90;;;;;;5010812;28;20470;-54
2023/07/03 06:49:36;;;;;;;10.85;2.28;;;17.30;99.90;;;;;;5011132;28;20064;-54
2023/07/03 06:52:02;;;;;;;13.05;2.92;;;17.30;99.90;;;;;;5010812;28;20560;-54
2023/07/03 06:54:28;;;;;;;10.95;2.40;;;17.30;99.90;;;;;;5010938;28;20030;-54
2023/07/03 06:56:54;;;;;;;14.80;2.50;;;17.20;99.90;;;;;;5010778;28;20076;-54
2023/07/03 06:59:19;;;;;;;10.68;2.55;;;17.10;99.90;;;;;;5012510;28;20069;-49
2023/07/03 07:01:45;;;;;;;13.25;2.55;;;17.10;99.90;;;;;;5014479;28;20484;-50
2023/07/03 07:04:11;;;;;;;10.90;2.72;;;16.90;99.90;;;;;;4960720;28;20121;-52
2023/07/03 07:06:38;;;;;;;8.85;2.28;;;17.00;99.90;;;;;;4990166;28;20054;-53
2023/07/03 07:09:04;;;;;;;12.60;3.35;;;17.00;99.90;;;;;;4989888;28;20041;-51
2023/07/03 07:11:33;;;;;;;8.63;2.45;;;16.90;99.90;;;;;;4990387;28;20445;-51
2023/07/03 07:14:00;;;;;;;12.18;3.17;;;16.80;99.90;;;;;;4973571;28;20053;-51
2023/07/03 07:16:31;;;;;;;17.77;2.97;;;16.90;99.90;;;;;;4991534;28;20044;-54
2023/07/03 07:19:02;;;;;;;9.30;3.22;;;17.00;99.90;;;;;;4991439;28;20042;-49
2023/07/03 07:21:29;;;;;;;10.15;3.40;;;17.20;99.90;;;;;;4974288;28;20053;-53
2023/07/03 07:24:01;;;;;;;12.13;3.05;;;17.40;99.90;;;;;;4991596;28;20038;-54
2023/07/03 07:26:33;;;;;;;11.88;3.22;;;17.50;99.90;;;;;;4974132;28;20042;-54
2023/07/03 07:29:03;;;;;;;5.78;2.40;;;17.60;99.90;;;;;;4991128;28;20101;-52
2023/07/03 07:31:31;;;;;;;10.00;3.03;;;17.60;99.90;;;;;;4974197;28;20046;-54
2023/07/03 07:33:57;;;;;;;8.93;2.28;;;17.50;99.90;;;;;;4990608;28;20042;-53
2023/07/03 07:36:25;;;;;;;8.10;2.35;;;17.60;99.90;;;;;;4991126;28;20553;-51
2023/07/03 07:38:54;;;;;;;8.98;2.88;;;17.70;99.90;;;;;;4990966;28;20026;-51
2023/07/03 07:41:20;;;;;;;8.23;2.42;;;17.80;99.90;;;;;;4990759;28;20117;-53
2023/07/03 07:43:47;;;;;;;13.32;3.47;;;17.80;99.90;;;;;;4990522;28;20036;-52
2023/07/03 07:46:13;;;;;;;11.40;2.92;;;17.80;99.90;;;;;;4991151;28;20077;-53
2023/07/03 07:48:39;;;;;;;10.57;2.92;;;17.70;99.90;;;;;;4991002;28;20049;-52
2023/07/03 07:51:09;;;;;;;10.30;2.50;;;17.70;99.90;;;;;;4990941;28;20497;-54
2023/07/03 07:53:35;;;;;;;12.02;2.50;;;17.60;99.90;;;;;;4990083;28;20121;-49
2023/07/03 07:56:02;;;;;;;8.85;2.22;;;17.60;99.90;;;;;;4990855;28;20019;-52
2023/07/03 07:58:27;;;;;;;11.82;2.70;;;17.60;99.90;;;;;;4976229;28;20173;-55
2023/07/03 08:00:54;;;;;;;13.10;2.60;;;17.60;99.90;;;;;;4994234;28;20534;-51
2023/07/03 08:03:20;;;;;;;13.95;2.58;;;17.50;99.90;;;;;;4993749;28;20046;-51
2023/07/03 08:05:46;;;;;;;10.18;2.38;;;17.50;99.90;;;;;;4994122;28;20034;-55
2023/07/03 08:08:11;;;;;;;10.32;2.40;;;17.60;99.90;;;;;;4993908;28;20030;-51
2023/07/03 08:10:37;;;;;;;11.07;2.28;;;17.80;99.90;;;;;;4994033;28;20030;-53
2023/07/03 08:13:03;;;;;;;7.50;3.00;;;17.90;99.90;;;;;;4993365;28;20510;-53
2023/07/03 08:15:28;;;;;;;12.60;3.95;;;18.00;99.90;;;;;;4976437;28;20403;-55
2023/07/03 08:17:54;;;;;;;12.68;4.85;;;18.00;99.90;;;;;;4993873;28;20030;-50
2023/07/03 08:20:21;;;;;;;19.55;7.13;;;18.10;99.90;;;;;;4993873;28;20465;-52
2023/07/03 08:22:46;;;;;;;24.23;9.43;;;18.20;99.80;;;;;;4993319;28;20117;-54
2023/07/03 08:25:12;;;;;;;14.80;4.97;;;18.30;99.40;;;;;;4993762;28;20117;-54
2023/07/03 08:27:38;;;;;;;9.27;2.45;;;18.40;98.80;;;;;;4993782;28;20243;-51
2023/07/03 08:30:05;;;;;;;5.18;1.67;;;18.50;98.80;;;;;;4993745;28;20103;-54
2023/07/03 08:32:30;;;;;;;7.28;2.08;;;18.50;98.20;;;;;;4993454;28;20053;-52
2023/07/03 08:34:56;;;;;;;7.82;2.05;;;18.60;98.70;;;;;;4993443;28;20026;-51
2023/07/03 08:37:22;;;;;;;8.10;2.05;;;18.70;97.20;;;;;;4993787;28;20463;-50
2023/07/03 08:39:47;;;;;;;6.78;1.52;;;18.90;97.80;;;;;;4993126;28;20482;-52
2023/07/03 08:42:24;;;;;;;6.82;2.13;;;18.90;96.60;;;;;;4993579;28;20026;-54
2023/07/03 08:44:50;;;;;;;6.05;1.60;;;19.00;95.90;;;;;;4993314;28;20034;-50
2023/07/03 08:47:21;;;;;;;5.78;1.98;;;19.20;95.40;;;;;;4993292;28;20031;-50
2023/07/03 08:49:48;;;;;;;7.53;1.90;;;19.40;94.90;;;;;;4993489;28;20030;-53
2023/07/03 08:52:25;;;;;;;6.65;1.90;;;19.40;96.10;;;;;;4993275;28;20084;-55
2023/07/03 08:54:52;;;;;;;9.20;2.13;;;19.40;95.40;;;;;;4993332;28;20116;-53
2023/07/03 08:57:20;;;;;;;9.30;1.70;;;19.30;95.40;;;;;;4993967;28;20041;-56
2023/07/03 08:59:46;;;;;;;6.82;1.75;;;19.10;95.40;;;;;;4993876;28;20398;-53
2023/07/03 09:02:27;;;;;;;5.93;1.50;;;19.10;95.70;;;;;;4993336;28;20400;-52
2023/07/03 09:05:20;;;;;;;7.95;2.00;;;19.00;94.80;;;;;;4993373;28;20035;-55
2023/07/03 09:08:00;;;;;;;8.80;1.95;;;19.20;95.60;;;;;;4993210;28;20097;-54
2023/07/03 09:10:52;;;;;;;7.18;2.03;;;19.40;94.50;;;;;;4992821;28;20031;-53
2023/07/03 09:13:35;;;;;;;7.90;2.05;;;19.50;93.70;;;;;;4990975;28;20062;-54
2023/07/03 09:16:07;;;;;;;7.28;1.75;;;19.60;93.40;;;;;;4993607;28;20030;-51
2023/07/03 09:18:41;;;;;;;6.88;2.40;;;19.60;93.30;;;;;;4993487;28;20438;-53
2023/07/03 09:21:07;;;;;;;9.23;3.10;;;19.60;93.10;;;;;;4993335;28;20038;-52
2023/07/03 09:23:38;;;;;;;10.35;1.98;;;19.60;93.40;;;;;;4993002;28;20038;-53
2023/07/03 09:26:26;;;;;;;6.57;1.80;;;19.60;92.90;;;;;;4993189;28;20391;-51
2023/07/03 09:28:58;;;;;;;11.48;3.05;;;19.40;93.10;;;;;;4992841;28;20042;-55
2023/07/03 09:31:25;;;;;;;6.57;1.83;;;19.30;93.00;;;;;;4993065;28;20477;-54
2023/07/03 09:33:51;;;;;;;11.60;1.90;;;19.30;93.30;;;;;;4992778;28;20041;-54
2023/07/03 09:36:28;;;;;;;7.50;1.83;;;19.30;92.80;;;;;;4993233;28;20375;-54
2023/07/03 09:38:53;;;;;;;6.50;1.65;;;19.30;93.50;;;;;;4993147;28;20069;-53
2023/07/03 09:41:30;;;;;;;7.13;1.77;;;19.30;92.30;;;;;;4974998;28;20129;-54
2023/07/03 09:43:56;;;;;;;9.02;1.90;;;19.30;92.40;;;;;;4991903;28;20026;-55
2023/07/03 09:46:23;;;;;;;7.43;1.88;;;19.40;91.90;;;;;;4992462;28;20038;-55
2023/07/03 09:48:49;;;;;;;5.63;1.50;;;19.50;92.20;;;;;;4974771;28;20406;-55
2023/07/03 09:51:29;;;;;;;6.30;1.50;;;19.70;92.10;;;;;;4992162;28;20033;-53
2023/07/03 09:54:04;;;;;;;6.65;1.55;;;19.90;91.70;;;;;;4991637;28;20045;-54
2023/07/03 09:56:30;;;;;;;9.50;2.42;;;19.90;91.10;;;;;;4992623;28;20586;-55
2023/07/03 09:59:00;;;;;;;6.75;1.77;;;20.00;91.10;;;;;;4992124;28;20542;-53
2023/07/03 10:01:32;;;;;;;5.68;1.63;;;20.20;90.90;;;;;;4991806;28;20037;-55
2023/07/03 10:04:02;;;;;;;6.13;1.48;;;20.10;90.30;;;;;;4991623;28;20041;-54
2023/07/03 10:06:28;;;;;;;8.02;1.60;;;20.00;90.50;;;;;;4991930;28;20237;-56
2023/07/03 10:09:00;;;;;;;6.10;1.67;;;20.00;91.00;;;;;;4991804;28;20121;-54
2023/07/03 10:11:43;;;;;;;6.85;1.92;;;20.10;90.60;;;;;;4991764;28;20402;-55
2023/07/03 10:14:14;;;;;;;7.35;1.60;;;20.20;90.90;;;;;;4991766;28;20038;-55
2023/07/03 10:16:41;;;;;;;12.57;2.10;;;20.10;90.90;;;;;;4991885;28;20042;-53
2023/07/03 10:19:09;;;;;;;8.13;1.98;;;20.00;90.40;;;;;;4991773;28;20064;-54
2023/07/03 10:21:38;;;;;;;6.53;1.40;;;19.90;90.20;;;;;;4991321;28;20554;-55
2023/07/03 10:24:05;;;;;;;6.13;1.73;;;20.00;90.70;;;;;;4991278;28;20034;-53
2023/07/03 10:26:38;;;;;;;6.55;1.92;;;20.10;89.30;;;;;;4991883;28;20042;-55
2023/07/03 10:29:22;;;;;;;7.38;2.17;;;20.20;89.50;;;;;;4974234;28;20049;-53
2023/07/03 10:32:03;;;;;;;4.95;1.40;;;20.20;89.80;;;;;;4973958;28;20515;-54
2023/07/03 10:34:47;;;;;;;6.35;1.65;;;20.40;89.20;;;;;;4991335;28;20505;-52
2023/07/03 10:37:13;;;;;;;9.05;1.73;;;20.40;86.70;;;;;;4991469;28;20037;-54
2023/07/03 10:40:17;;;;;;;7.15;1.60;;;20.40;88.10;;;;;;4991254;28;20390;-55
2023/07/03 10:42:52;;;;;;;8.93;2.53;;;20.50;87.10;;;;;;4969814;28;20050;-55
2023/07/03 10:45:20;;;;;;;7.82;1.60;;;20.60;87.80;;;;;;4991543;28;20054;-52
2023/07/03 10:47:52;;;;;;;7.28;1.85;;;20.70;87.60;;;;;;4991419;28;20040;-54
2023/07/03 10:50:30;;;;;;;3.22;1.42;;;20.70;86.90;;;;;;4991455;28;20583;-54
2023/07/03 10:53:13;;;;;;;19.00;6.57;;;20.80;87.60;;;;;;4990736;28;20501;-55
2023/07/03 10:55:57;;;;;;;14.93;5.72;;;20.80;86.90;;;;;;4991350;28;20428;-54
2023/07/03 10:58:23;;;;;;;8.70;3.63;;;20.90;86.40;;;;;;4991230;28;20468;-52
2023/07/03 11:01:14;;;;;;;12.05;6.43;;;21.00;86.20;;;;;;4991152;28;20041;-54
2023/07/03 11:04:17;;;;;;;12.52;5.70;;;21.30;85.80;;;;;;4990807;28;20378;-50
2023/07/03 11:07:07;;;;;;;11.20;3.40;;;21.50;85.50;;;;;;4991301;28;20030;-54
2023/07/03 11:09:44;;;;;;;7.25;2.45;;;21.20;84.20;;;;;;4991222;28;20057;-54
2023/07/03 11:12:30;;;;;;;10.25;2.83;;;20.90;85.20;;;;;;4990855;28;20046;-55
2023/07/03 11:15:14;;;;;;;7.10;2.92;;;20.90;86.10;;;;;;4991020;28;20042;-54
2023/07/03 11:18:21;;;;;;;5.53;2.03;;;20.90;86.70;;;;;;4991257;28;20030;-53
2023/07/03 11:21:05;;;;;;;7.32;1.73;;;21.10;86.10;;;;;;4991022;28;20033;-54
2023/07/03 11:24:06;;;;;;;10.90;2.35;;;21.20;86.80;;;;;;4990805;28;20073;-53
2023/07/03 11:26:37;;;;;;;8.48;2.63;;;21.30;87.20;;;;;;4991255;28;20033;-51
2023/07/03 11:29:05;;;;;;;7.00;2.35;;;21.40;87.40;;;;;;4991251;28;20439;-52
2023/07/03 11:31:31;;;;;;;5.75;1.92;;;21.40;87.20;;;;;;4991164;28;20049;-53
2023/07/03 11:33:58;;;;;;;7.68;2.10;;;21.30;87.70;;;;;;4994518;28;20030;-52
2023/07/03 11:36:38;;;;;;;7.45;1.90;;;21.10;88.90;;;;;;4995176;28;20038;-54
2023/07/03 11:39:28;;;;;;;8.93;2.80;;;21.00;89.40;;;;;;4994937;28;20027;-54
2023/07/03 11:41:59;;;;;;;6.95;2.05;;;21.00;88.40;;;;;;4994557;28;20034;-54
2023/07/03 11:44:48;;;;;;;8.50;2.58;;;21.20;88.60;;;;;;4994826;28;20033;-51
2023/07/03 11:47:26;;;;;;;6.45;2.17;;;20.90;88.70;;;;;;4977062;28;20030;-52
2023/07/03 11:49:59;;;;;;;9.02;2.40;;;20.70;89.90;;;;;;4994606;28;20043;-54
2023/07/03 11:52:34;;;;;;;5.93;2.03;;;20.50;90.60;;;;;;4994155;28;20035;-51
2023/07/03 11:55:11;;;;;;;6.30;2.10;;;20.30;90.90;;;;;;4994322;28;20398;-53
2023/07/03 11:57:45;;;;;;;7.20;2.45;;;20.10;90.90;;;;;;4994422;28;20034;-53
2023/07/03 12:00:29;;;;;;;8.75;2.03;;;20.00;91.80;;;;;;4994302;28;20034;-53
2023/07/03 12:02:58;;;;;;;6.90;2.20;;;19.90;92.50;;;;;;4993956;28;20038;-53
2023/07/03 12:05:45;;;;;;;9.48;2.20;;;19.70;92.10;;;;;;4994205;28;20081;-50
2023/07/03 12:08:32;;;;;;;9.55;2.67;;;19.60;92.60;;;;;;4994274;28;20030;-52
2023/07/03 12:11:00;;;;;;;11.57;3.47;;;19.40;93.50;;;;;;4994358;28;20382;-55
2023/07/03 12:13:41;;;;;;;7.82;3.20;;;19.20;93.80;;;;;;4993524;28;20034;-53
2023/07/03 12:16:26;;;;;;;11.57;3.83;;;19.20;94.30;;;;;;4993916;28;20368;-53
2023/07/03 12:19:07;;;;;;;7.28;2.50;;;19.10;94.10;;;;;;4993902;28;20041;-53
2023/07/03 12:21:43;;;;;;;7.68;2.15;;;19.00;94.30;;;;;;4993749;28;20042;-52
2023/07/03 12:24:27;;;;;;;9.38;2.42;;;19.10;94.10;;;;;;4993571;28;20049;-54
2023/07/03 12:27:03;;;;;;;10.00;2.42;;;19.20;94.10;;;;;;4994010;28;20282;-53
2023/07/03 12:29:34;;;;;;;6.78;2.00;;;19.40;93.80;;;;;;4993709;28;20030;-54
2023/07/03 12:32:06;;;;;;;7.22;2.25;;;19.50;93.40;;;;;;4993802;28;20023;-54
2023/07/03 12:34:40;;;;;;;10.60;2.88;;;19.70;93.90;;;;;;4975868;28;20508;-53
2023/07/03 12:37:12;;;;;;;8.57;2.80;;;20.00;93.00;;;;;;4993446;28;20034;-53
2023/07/03 12:39:38;;;;;;;10.57;3.65;;;20.20;92.90;;;;;;4976345;28;20034;-52
2023/07/03 12:42:05;;;;;;;8.18;3.15;;;20.20;92.30;;;;;;4993263;28;20145;-53
2023/07/03 12:44:31;;;;;;;9.80;2.58;;;20.20;92.60;;;;;;4992136;28;20388;-54
2023/07/03 12:47:07;;;;;;;10.32;3.70;;;20.30;91.70;;;;;;4993481;28;20579;-53
2023/07/03 12:49:55;;;;;;;9.95;3.72;;;20.60;91.80;;;;;;4993236;28;20049;-49
2023/07/03 12:52:21;;;;;;;6.22;1.77;;;20.70;90.50;;;;;;4993030;28;20038;-54
2023/07/03 12:54:47;;;;;;;6.85;1.83;;;20.90;90.20;;;;;;4993153;28;20030;-54
2023/07/03 12:57:13;;;;;;;2.97;1.48;;;21.10;88.40;;;;;;4993310;28;20172;-54